Terminal Aerodrome Forecast
Issued by NWS Mt. Holly, NJ

Current Version | Previous Version | Text Only | Print | Product List | Glossary On
Versions: 1 2 3 4 5 6 7 8 9 10 11 12 13 14 15 16 17 18 19 20 21 22 23 24
674
FTUS41 KPHI 311720
TAFPHL
TAF
KPHL 311720Z 3118/0124 06006KT P6SM FEW050
     FM312000 32005KT P6SM FEW050
     FM312200 24005KT P6SM FEW050
     FM010100 16008KT P6SM SCT250
     FM010600 VRB03KT 6SM BR BKN250
     FM011200 06007KT P6SM BKN250=

USA.gov is the U.S. government's official web portal to all federal, state and local government web resources and services.